createdAt,value
2019-05-23T00:03:40.026Z,16.80
2019-05-23T00:08:45.879Z,16.80
2019-05-23T00:13:52.255Z,16.90
2019-05-23T00:18:57.258Z,16.70
2019-05-23T00:24:04.199Z,16.80
2019-05-23T00:29:10.961Z,16.60
2019-05-23T00:34:15.286Z,16.70
2019-05-23T00:39:20.064Z,16.70
2019-05-23T00:44:25.243Z,16.40
2019-05-23T00:49:30.826Z,16.70
2019-05-23T00:54:35.459Z,16.30
2019-05-23T00:59:40.342Z,16.50
2019-05-23T01:04:44.791Z,16.70
2019-05-23T01:09:49.679Z,16.20
2019-05-23T01:14:54.499Z,16.50
2019-05-23T01:20:00.070Z,16.30
2019-05-23T01:25:04.539Z,16.40
2019-05-23T01:30:12.758Z,16.20
2019-05-23T01:35:20.221Z,16.50
2019-05-23T01:40:25.101Z,16.40
2019-05-23T01:45:30.501Z,16.00
2019-05-23T01:50:34.972Z,16.50
2019-05-23T01:55:38.932Z,16.00
2019-05-23T02:00:44.258Z,16.30
2019-05-23T02:05:48.200Z,16.20
2019-05-23T02:10:52.583Z,16.10
2019-05-23T02:15:57.897Z,16.00
2019-05-23T02:21:02.096Z,16.20
2019-05-23T02:26:07.242Z,16.00
2019-05-23T02:31:12.217Z,15.90
2019-05-23T02:36:16.564Z,15.90
2019-05-23T02:41:46.404Z,16.00
2019-05-23T02:47:22.284Z,15.90
2019-05-23T02:52:42.289Z,15.60
2019-05-23T02:57:47.700Z,15.90
2019-05-23T03:02:54.625Z,15.80
2019-05-23T03:08:00.552Z,16.00
2019-05-23T03:13:06.372Z,15.50
2019-05-23T03:18:13.127Z,15.70
2019-05-23T03:23:17.827Z,15.90
2019-05-23T03:28:25.955Z,15.60
2019-05-23T03:33:31.911Z,15.80
2019-05-23T03:38:37.183Z,16.00
2019-05-23T03:43:42.843Z,15.50
2019-05-23T03:48:47.588Z,15.60
2019-05-23T03:53:51.950Z,15.90
2019-05-23T03:58:56.767Z,15.50
2019-05-23T04:04:02.158Z,15.50
2019-05-23T04:09:07.876Z,15.70
2019-05-23T04:14:12.272Z,15.50
2019-05-23T04:19:16.897Z,15.60
2019-05-23T04:24:21.141Z,15.40
2019-05-23T04:29:25.799Z,15.40
2019-05-23T04:34:30.850Z,15.60
2019-05-23T04:39:35.143Z,15.60
2019-05-23T04:44:43.818Z,15.60
2019-05-23T04:49:45.766Z,15.30
2019-05-23T04:54:50.449Z,15.50
2019-05-23T04:59:55.264Z,15.40
2019-05-23T05:04:59.811Z,15.60
2019-05-23T05:10:04.690Z,15.50
2019-05-23T05:15:09.703Z,15.40
2019-05-23T05:20:14.294Z,15.50
2019-05-23T05:25:18.294Z,15.40
2019-05-23T05:30:22.358Z,15.50
2019-05-23T05:35:27.234Z,15.30
2019-05-23T05:40:31.486Z,15.70
2019-05-23T05:45:35.411Z,15.30
2019-05-23T05:50:39.743Z,15.40
2019-05-23T05:55:44.514Z,15.60
2019-05-23T06:00:58.843Z,15.70
2019-05-23T06:06:17.039Z,15.70
2019-05-23T06:11:21.437Z,15.70
2019-05-23T06:16:25.859Z,15.80
2019-05-23T06:21:30.510Z,15.90
2019-05-23T06:26:34.796Z,15.50
2019-05-23T06:31:40.122Z,15.70
2019-05-23T06:36:44.703Z,15.90
2019-05-23T06:41:48.758Z,15.70
2019-05-23T06:46:53.087Z,15.90
2019-05-23T06:51:57.603Z,15.90
2019-05-23T06:57:01.653Z,16.10
2019-05-23T07:02:05.708Z,16.10
2019-05-23T07:07:11.499Z,16.00
2019-05-23T07:12:15.490Z,16.20
2019-05-23T07:17:21.510Z,16.30
2019-05-23T07:22:27.597Z,16.50
2019-05-23T07:27:32.126Z,16.40
2019-05-23T07:32:36.180Z,16.40
2019-05-23T07:37:40.418Z,16.60
2019-05-23T07:42:45.031Z,16.50
2019-05-23T07:47:49.551Z,16.80
2019-05-23T07:52:56.620Z,16.70
2019-05-23T07:58:02.757Z,16.90
2019-05-23T08:03:09.755Z,16.90
2019-05-23T08:08:13.691Z,17.30
2019-05-23T08:13:17.755Z,17.40
2019-05-23T08:18:22.174Z,17.60
2019-05-23T08:23:26.447Z,17.60
2019-05-23T08:28:31.120Z,17.50
2019-05-23T08:33:36.171Z,17.70
2019-05-23T08:38:40.934Z,17.90
2019-05-23T08:43:45.176Z,17.90
2019-05-23T08:48:49.266Z,18.30
2019-05-23T08:53:53.401Z,18.50
2019-05-23T08:58:57.597Z,18.40
2019-05-23T09:04:01.895Z,18.60
2019-05-23T09:09:27.915Z,18.50
2019-05-23T09:14:13.768Z,18.50
2019-05-23T09:19:18.025Z,19.10
2019-05-23T09:24:22.018Z,19.00
2019-05-23T09:29:26.165Z,19.20
2019-05-23T09:34:30.565Z,19.50
2019-05-23T09:39:36.384Z,19.50
2019-05-23T09:44:40.370Z,19.80
2019-05-23T09:49:53.908Z,19.60
2019-05-23T09:54:50.021Z,19.80
2019-05-23T09:59:56.885Z,19.80
2019-05-23T10:05:00.161Z,19.80
2019-05-23T10:10:04.920Z,20.30
2019-05-23T10:15:14.573Z,20.00
2019-05-23T10:20:20.418Z,20.30
2019-05-23T10:25:24.279Z,20.20
2019-05-23T10:30:29.217Z,20.10
2019-05-23T10:35:33.717Z,20.30
2019-05-23T10:40:38.624Z,20.40
2019-05-23T10:45:42.945Z,20.50
2019-05-23T10:50:47.414Z,20.30
2019-05-23T10:55:51.607Z,20.70
2019-05-23T11:00:56.155Z,20.90
2019-05-23T11:06:14.923Z,20.60
2019-05-23T11:11:07.313Z,20.60
2019-05-23T11:16:11.620Z,20.40
2019-05-23T11:21:15.542Z,20.70
2019-05-23T11:26:19.850Z,20.70
2019-05-23T11:31:24.238Z,20.70
2019-05-23T11:36:35.531Z,20.70
2019-05-23T11:41:34.545Z,21.00
2019-05-23T11:46:39.443Z,20.80
2019-05-23T11:51:44.023Z,21.20
2019-05-23T11:56:48.788Z,21.00
2019-05-23T12:02:07.345Z,21.00
2019-05-23T12:07:16.218Z,21.00
2019-05-23T12:12:20.667Z,21.10
2019-05-23T12:17:26.427Z,20.80
2019-05-23T12:22:30.672Z,21.20
2019-05-23T12:27:35.356Z,21.40
2019-05-23T12:32:40.232Z,20.90
2019-05-23T12:37:44.216Z,21.20
2019-05-23T12:42:48.573Z,21.40
2019-05-23T12:48:06.468Z,21.10
2019-05-23T12:53:12.812Z,21.50
2019-05-23T12:58:18.697Z,21.20
2019-05-23T13:03:23.909Z,21.30
2019-05-23T13:08:28.607Z,21.20
2019-05-23T13:13:32.530Z,21.30
2019-05-23T13:18:36.664Z,21.60
2019-05-23T13:23:40.951Z,21.60
2019-05-23T13:28:45.336Z,21.30
2019-05-23T13:33:49.328Z,21.60
2019-05-23T13:38:53.887Z,21.60
2019-05-23T13:43:58.128Z,22.10
2019-05-23T13:49:02.493Z,22.00
2019-05-23T13:54:06.799Z,21.90
2019-05-23T13:59:10.890Z,22.00
2019-05-23T14:04:15.493Z,21.90
2019-05-23T14:09:20.431Z,22.10
2019-05-23T14:14:24.523Z,22.00
2019-05-23T14:19:29.636Z,21.90
2019-05-23T14:24:37.671Z,21.80
2019-05-23T14:29:39.733Z,22.00
2019-05-23T14:34:44.290Z,22.10
2019-05-23T14:39:51.676Z,22.10
2019-05-23T14:44:55.819Z,22.00
2019-05-23T14:50:20.499Z,22.10
2019-05-23T14:55:24.833Z,22.00
2019-05-23T15:00:29.458Z,21.70
2019-05-23T15:05:34.415Z,22.00
2019-05-23T15:10:38.428Z,22.10
2019-05-23T15:15:43.235Z,22.00
2019-05-23T15:20:47.662Z,21.90
2019-05-23T15:25:51.592Z,21.90
2019-05-23T15:30:55.470Z,21.90
2019-05-23T15:35:59.765Z,22.00
2019-05-23T15:41:04.467Z,22.10
2019-05-23T15:46:08.807Z,22.10
2019-05-23T15:51:15.495Z,22.30
2019-05-23T15:56:39.057Z,22.20
2019-05-23T16:01:49.127Z,22.30
2019-05-23T16:06:53.429Z,22.40
2019-05-23T16:11:57.555Z,22.70
2019-05-23T16:17:02.280Z,22.40
2019-05-23T16:22:06.812Z,22.40
2019-05-23T16:27:12.370Z,22.80
2019-05-23T16:32:16.732Z,22.60
2019-05-23T16:37:21.078Z,22.50
2019-05-23T16:42:25.145Z,22.50
2019-05-23T16:47:29.654Z,22.60
2019-05-23T16:52:34.294Z,22.60
2019-05-23T16:57:44.468Z,22.80
2019-05-23T17:03:13.569Z,22.70
2019-05-23T17:08:36.457Z,22.70
2019-05-23T17:13:45.895Z,22.70
2019-05-23T17:18:55.478Z,22.70
2019-05-23T17:24:18.052Z,22.70
2019-05-23T17:29:30.480Z,22.70
2019-05-23T17:34:34.577Z,22.70
2019-05-23T17:39:40.233Z,22.60
2019-05-23T17:44:44.377Z,22.80
2019-05-23T17:49:48.734Z,22.50
2019-05-23T17:54:52.910Z,22.30
2019-05-23T17:59:57.554Z,22.60
2019-05-23T18:05:01.893Z,22.90
2019-05-23T18:10:07.072Z,22.80
2019-05-23T18:15:13.399Z,23.00
2019-05-23T18:20:17.890Z,23.00
2019-05-23T18:25:22.711Z,23.00
2019-05-23T18:30:45.991Z,22.70
2019-05-23T18:35:52.279Z,23.10
2019-05-23T18:41:04.135Z,22.70
2019-05-23T18:46:04.668Z,22.60
2019-05-23T18:51:08.518Z,23.00
2019-05-23T18:56:12.484Z,22.90
2019-05-23T19:01:22.664Z,22.70
2019-05-23T19:06:27.402Z,22.70
2019-05-23T19:11:31.289Z,22.40
2019-05-23T19:16:35.677Z,22.50
2019-05-23T19:21:40.083Z,22.20
2019-05-23T19:26:45.410Z,22.30
2019-05-23T19:31:49.577Z,22.00
2019-05-23T19:36:53.422Z,22.10
2019-05-23T19:41:57.360Z,22.20
2019-05-23T19:47:01.709Z,21.80
2019-05-23T19:52:06.837Z,22.10
2019-05-23T19:57:10.767Z,21.90
2019-05-23T20:02:37.455Z,22.10
2019-05-23T20:07:41.671Z,21.90
2019-05-23T20:12:45.683Z,21.50
2019-05-23T20:17:51.716Z,21.60
2019-05-23T20:22:56.470Z,21.50
2019-05-23T20:28:00.411Z,21.50
2019-05-23T20:33:04.672Z,21.50
2019-05-23T20:38:08.733Z,21.50
2019-05-23T20:43:12.944Z,21.40
2019-05-23T20:48:17.468Z,21.10
2019-05-23T20:53:21.463Z,21.20
2019-05-23T20:58:26.569Z,21.00
2019-05-23T21:03:34.687Z,21.00
2019-05-23T21:08:37.400Z,21.00
2019-05-23T21:13:42.036Z,20.80
2019-05-23T21:18:49.611Z,20.60
2019-05-23T21:23:56.678Z,20.60
2019-05-23T21:28:57.648Z,20.60
2019-05-23T21:34:01.937Z,20.40
2019-05-23T21:39:09.635Z,20.30
2019-05-23T21:44:13.878Z,20.50
2019-05-23T21:49:17.926Z,19.90
2019-05-23T21:54:21.803Z,19.80
2019-05-23T21:59:26.072Z,20.10
2019-05-23T22:04:55.324Z,19.90
2019-05-23T22:09:59.359Z,19.70
2019-05-23T22:15:04.673Z,19.90
2019-05-23T22:20:08.686Z,19.70
2019-05-23T22:25:15.915Z,19.70
2019-05-23T22:30:19.948Z,19.70
2019-05-23T22:35:24.580Z,19.80
2019-05-23T22:40:28.657Z,19.80
2019-05-23T22:45:33.259Z,19.60
2019-05-23T22:50:37.311Z,19.30
2019-05-23T22:55:41.267Z,19.50
2019-05-23T23:00:47.872Z,19.20
2019-05-23T23:05:51.891Z,19.20
2019-05-23T23:10:55.924Z,19.40
2019-05-23T23:16:00.185Z,19.20
2019-05-23T23:21:04.623Z,18.90
2019-05-23T23:26:09.179Z,18.90
2019-05-23T23:31:13.608Z,19.00
2019-05-23T23:36:17.535Z,19.00
2019-05-23T23:41:21.460Z,18.90
2019-05-23T23:46:43.304Z,18.90
2019-05-23T23:52:05.189Z,18.90
2019-05-23T23:57:27.078Z,19.00
